sensor_id;sensor_type;location;lat;lon;timestamp;P1;durP1;ratioP1;P2;durP2;ratioP2
71183;SDS011;58887;51.980;4.464;2023-10-08T00:01:08;4.79;;;4.37;;
71183;SDS011;58887;51.980;4.464;2023-10-08T00:03:38;4.69;;;4.35;;
71183;SDS011;58887;51.980;4.464;2023-10-08T00:06:05;4.55;;;4.18;;
71183;SDS011;58887;51.980;4.464;2023-10-08T00:08:32;4.81;;;4.37;;
71183;SDS011;58887;51.980;4.464;2023-10-08T00:10:58;4.91;;;4.38;;
71183;SDS011;58887;51.980;4.464;2023-10-08T00:13:31;4.85;;;4.30;;
71183;SDS011;58887;51.980;4.464;2023-10-08T00:15:56;4.38;;;3.99;;
71183;SDS011;58887;51.980;4.464;2023-10-08T00:18:22;4.64;;;4.19;;
71183;SDS011;58887;51.980;4.464;2023-10-08T00:20:52;4.76;;;4.40;;
71183;SDS011;58887;51.980;4.464;2023-10-08T00:23:30;4.44;;;4.15;;
71183;SDS011;58887;51.980;4.464;2023-10-08T00:25:56;4.32;;;4.02;;
71183;SDS011;58887;51.980;4.464;2023-10-08T00:28:23;4.38;;;3.98;;
71183;SDS011;58887;51.980;4.464;2023-10-08T00:30:49;4.22;;;3.87;;
71183;SDS011;58887;51.980;4.464;2023-10-08T00:33:15;4.42;;;4.09;;
71183;SDS011;58887;51.980;4.464;2023-10-08T00:35:42;4.05;;;3.75;;
71183;SDS011;58887;51.980;4.464;2023-10-08T00:38:11;4.50;;;4.21;;
71183;SDS011;58887;51.980;4.464;2023-10-08T00:40:45;4.36;;;4.06;;
71183;SDS011;58887;51.980;4.464;2023-10-08T00:43:29;4.25;;;4.00;;
71183;SDS011;58887;51.980;4.464;2023-10-08T00:46:04;4.21;;;3.97;;
71183;SDS011;58887;51.980;4.464;2023-10-08T00:48:45;4.39;;;4.10;;
71183;SDS011;58887;51.980;4.464;2023-10-08T00:51:12;4.16;;;3.90;;
71183;SDS011;58887;51.980;4.464;2023-10-08T00:54:03;4.30;;;4.08;;
71183;SDS011;58887;51.980;4.464;2023-10-08T00:56:41;4.36;;;3.99;;
71183;SDS011;58887;51.980;4.464;2023-10-08T00:59:22;4.66;;;4.29;;
71183;SDS011;58887;51.980;4.464;2023-10-08T01:01:51;4.50;;;4.24;;
71183;SDS011;58887;51.980;4.464;2023-10-08T01:04:31;4.32;;;4.00;;
71183;SDS011;58887;51.980;4.464;2023-10-08T01:07:03;4.76;;;4.46;;
71183;SDS011;58887;51.980;4.464;2023-10-08T01:09:41;4.11;;;3.90;;
71183;SDS011;58887;51.980;4.464;2023-10-08T01:12:21;4.69;;;4.42;;
71183;SDS011;58887;51.980;4.464;2023-10-08T01:14:48;4.51;;;4.22;;
71183;SDS011;58887;51.980;4.464;2023-10-08T01:17:15;4.47;;;4.18;;
71183;SDS011;58887;51.980;4.464;2023-10-08T01:19:48;4.43;;;4.09;;
71183;SDS011;58887;51.980;4.464;2023-10-08T01:22:20;4.78;;;4.49;;
71183;SDS011;58887;51.980;4.464;2023-10-08T01:24:49;4.65;;;4.32;;
71183;SDS011;58887;51.980;4.464;2023-10-08T01:27:17;4.89;;;4.53;;
71183;SDS011;58887;51.980;4.464;2023-10-08T01:29:52;4.61;;;4.39;;
71183;SDS011;58887;51.980;4.464;2023-10-08T01:32:19;4.44;;;4.18;;
71183;SDS011;58887;51.980;4.464;2023-10-08T01:34:46;4.05;;;3.85;;
71183;SDS011;58887;51.980;4.464;2023-10-08T01:37:16;4.20;;;4.00;;
71183;SDS011;58887;51.980;4.464;2023-10-08T01:39:45;4.93;;;4.66;;
71183;SDS011;58887;51.980;4.464;2023-10-08T01:42:15;4.44;;;4.23;;
71183;SDS011;58887;51.980;4.464;2023-10-08T01:44:45;4.44;;;4.23;;
71183;SDS011;58887;51.980;4.464;2023-10-08T01:47:13;4.73;;;4.49;;
71183;SDS011;58887;51.980;4.464;2023-10-08T01:49:41;3.95;;;3.78;;
71183;SDS011;58887;51.980;4.464;2023-10-08T01:52:08;4.22;;;4.09;;
71183;SDS011;58887;51.980;4.464;2023-10-08T01:54:39;4.70;;;4.53;;
71183;SDS011;58887;51.980;4.464;2023-10-08T01:57:06;4.16;;;3.99;;
71183;SDS011;58887;51.980;4.464;2023-10-08T01:59:34;4.54;;;4.39;;
71183;SDS011;58887;51.980;4.464;2023-10-08T02:02:00;4.57;;;4.39;;
71183;SDS011;58887;51.980;4.464;2023-10-08T02:04:25;4.47;;;4.33;;
71183;SDS011;58887;51.980;4.464;2023-10-08T02:06:51;4.77;;;4.66;;
71183;SDS011;58887;51.980;4.464;2023-10-08T02:09:16;4.38;;;4.29;;
71183;SDS011;58887;51.980;4.464;2023-10-08T02:11:48;4.53;;;4.42;;
71183;SDS011;58887;51.980;4.464;2023-10-08T02:14:21;4.65;;;4.50;;
71183;SDS011;58887;51.980;4.464;2023-10-08T02:16:48;4.38;;;4.28;;
71183;SDS011;58887;51.980;4.464;2023-10-08T02:19:15;4.48;;;4.40;;
71183;SDS011;58887;51.980;4.464;2023-10-08T02:21:43;4.37;;;4.24;;
71183;SDS011;58887;51.980;4.464;2023-10-08T02:24:11;4.25;;;4.14;;
71183;SDS011;58887;51.980;4.464;2023-10-08T02:26:41;4.78;;;4.66;;
71183;SDS011;58887;51.980;4.464;2023-10-08T02:29:08;4.85;;;4.72;;
71183;SDS011;58887;51.980;4.464;2023-10-08T02:31:37;4.36;;;4.21;;
71183;SDS011;58887;51.980;4.464;2023-10-08T02:34:05;4.44;;;4.33;;
71183;SDS011;58887;51.980;4.464;2023-10-08T02:36:33;4.12;;;3.97;;
71183;SDS011;58887;51.980;4.464;2023-10-08T02:39:01;4.39;;;4.27;;
71183;SDS011;58887;51.980;4.464;2023-10-08T02:41:40;3.93;;;3.83;;
71183;SDS011;58887;51.980;4.464;2023-10-08T02:44:12;4.63;;;4.45;;
71183;SDS011;58887;51.980;4.464;2023-10-08T02:46:45;4.78;;;4.62;;
71183;SDS011;58887;51.980;4.464;2023-10-08T02:49:14;4.59;;;4.46;;
71183;SDS011;58887;51.980;4.464;2023-10-08T02:51:48;4.23;;;4.10;;
71183;SDS011;58887;51.980;4.464;2023-10-08T02:54:19;4.66;;;4.53;;
71183;SDS011;58887;51.980;4.464;2023-10-08T02:56:51;4.31;;;4.20;;
71183;SDS011;58887;51.980;4.464;2023-10-08T02:59:28;4.46;;;4.38;;
71183;SDS011;58887;51.980;4.464;2023-10-08T03:01:54;4.48;;;4.32;;
71183;SDS011;58887;51.980;4.464;2023-10-08T03:04:22;4.12;;;3.97;;
71183;SDS011;58887;51.980;4.464;2023-10-08T03:06:49;4.15;;;4.01;;
71183;SDS011;58887;51.980;4.464;2023-10-08T03:09:18;4.04;;;3.91;;
71183;SDS011;58887;51.980;4.464;2023-10-08T03:11:57;4.36;;;4.23;;
71183;SDS011;58887;51.980;4.464;2023-10-08T03:14:23;3.88;;;3.80;;
71183;SDS011;58887;51.980;4.464;2023-10-08T03:16:52;4.01;;;3.98;;
71183;SDS011;58887;51.980;4.464;2023-10-08T03:19:23;4.24;;;4.18;;
71183;SDS011;58887;51.980;4.464;2023-10-08T03:21:50;4.52;;;4.46;;
71183;SDS011;58887;51.980;4.464;2023-10-08T03:24:23;4.47;;;4.42;;
71183;SDS011;58887;51.980;4.464;2023-10-08T03:26:56;4.33;;;4.24;;
71183;SDS011;58887;51.980;4.464;2023-10-08T03:29:37;4.34;;;4.26;;
71183;SDS011;58887;51.980;4.464;2023-10-08T03:32:10;4.57;;;4.46;;
71183;SDS011;58887;51.980;4.464;2023-10-08T03:34:43;4.27;;;4.17;;
71183;SDS011;58887;51.980;4.464;2023-10-08T03:37:14;4.04;;;3.95;;
71183;SDS011;58887;51.980;4.464;2023-10-08T03:39:54;4.13;;;4.11;;
71183;SDS011;58887;51.980;4.464;2023-10-08T03:42:32;3.90;;;3.88;;
71183;SDS011;58887;51.980;4.464;2023-10-08T03:45:05;3.93;;;3.90;;
71183;SDS011;58887;51.980;4.464;2023-10-08T03:47:41;4.25;;;4.19;;
71183;SDS011;58887;51.980;4.464;2023-10-08T03:50:11;4.53;;;4.46;;
71183;SDS011;58887;51.980;4.464;2023-10-08T03:52:41;4.06;;;3.98;;
71183;SDS011;58887;51.980;4.464;2023-10-08T03:55:08;3.70;;;3.61;;
71183;SDS011;58887;51.980;4.464;2023-10-08T03:57:52;4.10;;;4.02;;
71183;SDS011;58887;51.980;4.464;2023-10-08T04:00:24;3.77;;;3.71;;
71183;SDS011;58887;51.980;4.464;2023-10-08T04:03:06;3.92;;;3.90;;
71183;SDS011;58887;51.980;4.464;2023-10-08T04:05:36;4.01;;;3.99;;
71183;SDS011;58887;51.980;4.464;2023-10-08T04:08:10;4.06;;;4.03;;
71183;SDS011;58887;51.980;4.464;2023-10-08T04:11:04;4.03;;;3.98;;
71183;SDS011;58887;51.980;4.464;2023-10-08T04:13:33;4.14;;;4.06;;
71183;SDS011;58887;51.980;4.464;2023-10-08T04:16:04;4.09;;;4.03;;
71183;SDS011;58887;51.980;4.464;2023-10-08T04:18:30;4.09;;;4.04;;
71183;SDS011;58887;51.980;4.464;2023-10-08T04:20:55;4.62;;;4.55;;
71183;SDS011;58887;51.980;4.464;2023-10-08T04:23:30;4.39;;;4.29;;
71183;SDS011;58887;51.980;4.464;2023-10-08T04:25:56;4.24;;;4.19;;
71183;SDS011;58887;51.980;4.464;2023-10-08T04:28:23;4.19;;;4.14;;
71183;SDS011;58887;51.980;4.464;2023-10-08T04:30:53;4.51;;;4.46;;
71183;SDS011;58887;51.980;4.464;2023-10-08T04:33:25;4.48;;;4.41;;
71183;SDS011;58887;51.980;4.464;2023-10-08T04:35:52;4.52;;;4.46;;
71183;SDS011;58887;51.980;4.464;2023-10-08T04:38:22;4.44;;;4.38;;
71183;SDS011;58887;51.980;4.464;2023-10-08T04:40:50;4.14;;;4.06;;
71183;SDS011;58887;51.980;4.464;2023-10-08T04:43:23;4.27;;;4.21;;
71183;SDS011;58887;51.980;4.464;2023-10-08T04:45:58;4.24;;;4.15;;
71183;SDS011;58887;51.980;4.464;2023-10-08T04:48:33;4.31;;;4.23;;
71183;SDS011;58887;51.980;4.464;2023-10-08T04:51:02;4.35;;;4.27;;
71183;SDS011;58887;51.980;4.464;2023-10-08T04:53:29;4.28;;;4.20;;
71183;SDS011;58887;51.980;4.464;2023-10-08T04:56:01;4.14;;;4.07;;
71183;SDS011;58887;51.980;4.464;2023-10-08T04:58:32;4.06;;;3.99;;
71183;SDS011;58887;51.980;4.464;2023-10-08T05:01:01;4.48;;;4.41;;
71183;SDS011;58887;51.980;4.464;2023-10-08T05:03:42;3.96;;;3.91;;
71183;SDS011;58887;51.980;4.464;2023-10-08T05:06:23;3.61;;;3.55;;
71183;SDS011;58887;51.980;4.464;2023-10-08T05:11:51;4.20;;;4.16;;
71183;SDS011;58887;51.980;4.464;2023-10-08T05:14:18;4.40;;;4.36;;
71183;SDS011;58887;51.980;4.464;2023-10-08T05:19:34;4.37;;;4.27;;
71183;SDS011;58887;51.980;4.464;2023-10-08T05:22:10;4.97;;;4.81;;
71183;SDS011;58887;51.980;4.464;2023-10-08T05:24:47;4.36;;;4.28;;
71183;SDS011;58887;51.980;4.464;2023-10-08T05:27:36;4.41;;;4.38;;
71183;SDS011;58887;51.980;4.464;2023-10-08T05:30:30;4.42;;;4.37;;
71183;SDS011;58887;51.980;4.464;2023-10-08T05:33:19;4.31;;;4.27;;
71183;SDS011;58887;51.980;4.464;2023-10-08T05:35:53;4.54;;;4.44;;
71183;SDS011;58887;51.980;4.464;2023-10-08T05:38:34;4.59;;;4.53;;
71183;SDS011;58887;51.980;4.464;2023-10-08T05:41:00;3.82;;;3.81;;
71183;SDS011;58887;51.980;4.464;2023-10-08T05:46:04;4.09;;;4.08;;
71183;SDS011;58887;51.980;4.464;2023-10-08T05:48:48;4.20;;;4.16;;
71183;SDS011;58887;51.980;4.464;2023-10-08T05:51:41;4.29;;;4.24;;
71183;SDS011;58887;51.980;4.464;2023-10-08T05:54:14;4.63;;;4.58;;
71183;SDS011;58887;51.980;4.464;2023-10-08T05:56:57;4.57;;;4.50;;
71183;SDS011;58887;51.980;4.464;2023-10-08T05:59:31;4.77;;;4.68;;
71183;SDS011;58887;51.980;4.464;2023-10-08T06:02:07;4.64;;;4.62;;
71183;SDS011;58887;51.980;4.464;2023-10-08T06:04:51;4.52;;;4.52;;
71183;SDS011;58887;51.980;4.464;2023-10-08T06:07:44;4.66;;;4.66;;
71183;SDS011;58887;51.980;4.464;2023-10-08T06:10:20;4.45;;;4.41;;
71183;SDS011;58887;51.980;4.464;2023-10-08T06:13:00;4.27;;;4.21;;
71183;SDS011;58887;51.980;4.464;2023-10-08T06:15:38;4.02;;;3.96;;
71183;SDS011;58887;51.980;4.464;2023-10-08T06:18:20;4.02;;;3.93;;
71183;SDS011;58887;51.980;4.464;2023-10-08T06:20:52;3.84;;;3.77;;
71183;SDS011;58887;51.980;4.464;2023-10-08T06:23:21;3.79;;;3.77;;
71183;SDS011;58887;51.980;4.464;2023-10-08T06:25:51;3.58;;;3.38;;
71183;SDS011;58887;51.980;4.464;2023-10-08T06:28:39;3.46;;;3.23;;
71183;SDS011;58887;51.980;4.464;2023-10-08T06:31:06;2.65;;;2.55;;
71183;SDS011;58887;51.980;4.464;2023-10-08T06:33:38;2.78;;;2.70;;
71183;SDS011;58887;51.980;4.464;2023-10-08T06:36:06;2.84;;;2.75;;
71183;SDS011;58887;51.980;4.464;2023-10-08T06:38:38;3.06;;;2.91;;
71183;SDS011;58887;51.980;4.464;2023-10-08T06:41:06;3.20;;;3.03;;
71183;SDS011;58887;51.980;4.464;2023-10-08T06:43:39;3.47;;;3.27;;
71183;SDS011;58887;51.980;4.464;2023-10-08T06:46:11;3.19;;;2.98;;
71183;SDS011;58887;51.980;4.464;2023-10-08T06:48:37;2.75;;;2.62;;
71183;SDS011;58887;51.980;4.464;2023-10-08T06:51:10;3.10;;;3.05;;
71183;SDS011;58887;51.980;4.464;2023-10-08T06:53:40;3.18;;;3.14;;
71183;SDS011;58887;51.980;4.464;2023-10-08T06:56:06;3.61;;;3.54;;
71183;SDS011;58887;51.980;4.464;2023-10-08T06:58:35;3.78;;;3.73;;
71183;SDS011;58887;51.980;4.464;2023-10-08T07:01:00;3.95;;;3.90;;
71183;SDS011;58887;51.980;4.464;2023-10-08T07:03:34;4.07;;;4.01;;
71183;SDS011;58887;51.980;4.464;2023-10-08T07:06:02;3.97;;;3.88;;
71183;SDS011;58887;51.980;4.464;2023-10-08T07:08:41;4.40;;;4.21;;
71183;SDS011;58887;51.980;4.464;2023-10-08T07:11:08;4.30;;;4.16;;
71183;SDS011;58887;51.980;4.464;2023-10-08T07:13:37;4.27;;;4.10;;
71183;SDS011;58887;51.980;4.464;2023-10-08T07:16:05;4.36;;;4.23;;
71183;SDS011;58887;51.980;4.464;2023-10-08T07:18:37;4.66;;;4.48;;
71183;SDS011;58887;51.980;4.464;2023-10-08T07:21:04;5.18;;;4.88;;
71183;SDS011;58887;51.980;4.464;2023-10-08T07:23:37;5.83;;;5.26;;
71183;SDS011;58887;51.980;4.464;2023-10-08T07:26:21;5.33;;;4.90;;
71183;SDS011;58887;51.980;4.464;2023-10-08T07:29:02;5.20;;;4.79;;
71183;SDS011;58887;51.980;4.464;2023-10-08T07:31:34;5.23;;;4.76;;
71183;SDS011;58887;51.980;4.464;2023-10-08T07:34:01;5.09;;;4.57;;
71183;SDS011;58887;51.980;4.464;2023-10-08T07:36:44;5.43;;;4.96;;
71183;SDS011;58887;51.980;4.464;2023-10-08T07:39:19;5.47;;;5.01;;
71183;SDS011;58887;51.980;4.464;2023-10-08T07:41:49;5.06;;;4.65;;
71183;SDS011;58887;51.980;4.464;2023-10-08T07:44:16;5.00;;;4.70;;
71183;SDS011;58887;51.980;4.464;2023-10-08T07:46:46;5.63;;;5.16;;
71183;SDS011;58887;51.980;4.464;2023-10-08T07:49:16;5.28;;;4.87;;
71183;SDS011;58887;51.980;4.464;2023-10-08T07:51:43;4.73;;;4.26;;
71183;SDS011;58887;51.980;4.464;2023-10-08T07:54:20;4.73;;;4.20;;
71183;SDS011;58887;51.980;4.464;2023-10-08T07:56:55;4.37;;;3.91;;
71183;SDS011;58887;51.980;4.464;2023-10-08T07:59:37;4.22;;;3.75;;
71183;SDS011;58887;51.980;4.464;2023-10-08T08:02:06;4.62;;;4.00;;
71183;SDS011;58887;51.980;4.464;2023-10-08T08:04:39;4.67;;;3.89;;
71183;SDS011;58887;51.980;4.464;2023-10-08T08:07:06;4.90;;;4.03;;
71183;SDS011;58887;51.980;4.464;2023-10-08T08:09:32;4.49;;;3.81;;
71183;SDS011;58887;51.980;4.464;2023-10-08T08:12:06;5.00;;;4.29;;
71183;SDS011;58887;51.980;4.464;2023-10-08T08:14:37;4.70;;;4.10;;
71183;SDS011;58887;51.980;4.464;2023-10-08T08:17:06;4.36;;;3.75;;
71183;SDS011;58887;51.980;4.464;2023-10-08T08:19:45;4.30;;;3.78;;
71183;SDS011;58887;51.980;4.464;2023-10-08T08:22:12;3.94;;;3.52;;
71183;SDS011;58887;51.980;4.464;2023-10-08T08:27:31;3.62;;;3.32;;
71183;SDS011;58887;51.980;4.464;2023-10-08T08:29:57;4.14;;;3.84;;
71183;SDS011;58887;51.980;4.464;2023-10-08T08:32:37;3.87;;;3.64;;
71183;SDS011;58887;51.980;4.464;2023-10-08T08:35:08;3.90;;;3.64;;
71183;SDS011;58887;51.980;4.464;2023-10-08T08:37:36;4.03;;;3.80;;
71183;SDS011;58887;51.980;4.464;2023-10-08T08:40:06;3.82;;;3.56;;
71183;SDS011;58887;51.980;4.464;2023-10-08T08:42:34;4.00;;;3.73;;
71183;SDS011;58887;51.980;4.464;2023-10-08T08:45:02;3.71;;;3.52;;
71183;SDS011;58887;51.980;4.464;2023-10-08T08:47:37;3.74;;;3.61;;
71183;SDS011;58887;51.980;4.464;2023-10-08T08:50:06;3.85;;;3.69;;
71183;SDS011;58887;51.980;4.464;2023-10-08T08:52:39;3.32;;;3.20;;
71183;SDS011;58887;51.980;4.464;2023-10-08T08:55:08;3.58;;;3.48;;
71183;SDS011;58887;51.980;4.464;2023-10-08T08:57:44;4.16;;;4.11;;
71183;SDS011;58887;51.980;4.464;2023-10-08T09:00:12;4.55;;;4.55;;
71183;SDS011;58887;51.980;4.464;2023-10-08T09:02:39;4.89;;;4.89;;
71183;SDS011;58887;51.980;4.464;2023-10-08T09:05:06;4.52;;;4.52;;
71183;SDS011;58887;51.980;4.464;2023-10-08T09:10:24;4.62;;;4.56;;
71183;SDS011;58887;51.980;4.464;2023-10-08T09:12:53;4.92;;;4.82;;
71183;SDS011;58887;51.980;4.464;2023-10-08T09:15:23;4.99;;;4.90;;
71183;SDS011;58887;51.980;4.464;2023-10-08T09:17:51;4.75;;;4.69;;
71183;SDS011;58887;51.980;4.464;2023-10-08T09:20:18;4.75;;;4.66;;
71183;SDS011;58887;51.980;4.464;2023-10-08T09:22:45;4.38;;;4.29;;
71183;SDS011;58887;51.980;4.464;2023-10-08T09:25:19;4.72;;;4.67;;
71183;SDS011;58887;51.980;4.464;2023-10-08T09:27:54;5.13;;;5.06;;
71183;SDS011;58887;51.980;4.464;2023-10-08T09:30:21;4.68;;;4.58;;
71183;SDS011;58887;51.980;4.464;2023-10-08T09:32:47;4.97;;;4.78;;
71183;SDS011;58887;51.980;4.464;2023-10-08T09:35:13;4.65;;;4.43;;
71183;SDS011;58887;51.980;4.464;2023-10-08T09:37:40;5.10;;;4.74;;
71183;SDS011;58887;51.980;4.464;2023-10-08T09:40:07;4.95;;;4.44;;
71183;SDS011;58887;51.980;4.464;2023-10-08T09:42:35;4.55;;;4.00;;
71183;SDS011;58887;51.980;4.464;2023-10-08T09:45:03;4.42;;;3.85;;
71183;SDS011;58887;51.980;4.464;2023-10-08T09:47:31;4.21;;;3.70;;
71183;SDS011;58887;51.980;4.464;2023-10-08T09:50:03;3.57;;;3.18;;
71183;SDS011;58887;51.980;4.464;2023-10-08T09:52:39;4.05;;;3.57;;
71183;SDS011;58887;51.980;4.464;2023-10-08T09:55:15;3.86;;;3.41;;
71183;SDS011;58887;51.980;4.464;2023-10-08T09:57:43;3.90;;;3.49;;
71183;SDS011;58887;51.980;4.464;2023-10-08T10:00:09;4.16;;;3.64;;
71183;SDS011;58887;51.980;4.464;2023-10-08T10:02:42;4.55;;;3.94;;
71183;SDS011;58887;51.980;4.464;2023-10-08T10:05:12;4.20;;;3.65;;
71183;SDS011;58887;51.980;4.464;2023-10-08T10:07:45;4.62;;;3.88;;
71183;SDS011;58887;51.980;4.464;2023-10-08T10:10:25;4.08;;;3.49;;
71183;SDS011;58887;51.980;4.464;2023-10-08T10:13:03;4.08;;;3.52;;
71183;SDS011;58887;51.980;4.464;2023-10-08T10:15:33;4.67;;;4.00;;
71183;SDS011;58887;51.980;4.464;2023-10-08T10:18:09;4.26;;;3.68;;
71183;SDS011;58887;51.980;4.464;2023-10-08T10:20:46;4.06;;;3.55;;
71183;SDS011;58887;51.980;4.464;2023-10-08T10:26:05;4.52;;;4.03;;
71183;SDS011;58887;51.980;4.464;2023-10-08T10:31:43;4.50;;;4.04;;
71183;SDS011;58887;51.980;4.464;2023-10-08T10:34:16;4.69;;;4.31;;
71183;SDS011;58887;51.980;4.464;2023-10-08T10:36:43;4.75;;;4.30;;
71183;SDS011;58887;51.980;4.464;2023-10-08T10:39:14;5.05;;;4.56;;
71183;SDS011;58887;51.980;4.464;2023-10-08T10:41:42;4.72;;;4.36;;
71183;SDS011;58887;51.980;4.464;2023-10-08T10:44:13;4.83;;;4.46;;
71183;SDS011;58887;51.980;4.464;2023-10-08T10:46:42;4.58;;;4.13;;
71183;SDS011;58887;51.980;4.464;2023-10-08T10:49:31;4.98;;;4.48;;
71183;SDS011;58887;51.980;4.464;2023-10-08T10:51:57;4.54;;;4.19;;
71183;SDS011;58887;51.980;4.464;2023-10-08T10:54:23;4.40;;;4.04;;
71183;SDS011;58887;51.980;4.464;2023-10-08T10:56:50;4.78;;;4.41;;
71183;SDS011;58887;51.980;4.464;2023-10-08T10:59:30;4.70;;;4.41;;
71183;SDS011;58887;51.980;4.464;2023-10-08T11:02:05;4.80;;;4.62;;
71183;SDS011;58887;51.980;4.464;2023-10-08T11:04:34;5.10;;;4.89;;
71183;SDS011;58887;51.980;4.464;2023-10-08T11:07:21;4.82;;;4.56;;
71183;SDS011;58887;51.980;4.464;2023-10-08T11:09:52;5.03;;;4.68;;
71183;SDS011;58887;51.980;4.464;2023-10-08T11:12:20;4.35;;;4.06;;
71183;SDS011;58887;51.980;4.464;2023-10-08T11:14:57;5.34;;;4.98;;
71183;SDS011;58887;51.980;4.464;2023-10-08T11:17:24;4.54;;;4.30;;
71183;SDS011;58887;51.980;4.464;2023-10-08T11:19:51;4.92;;;4.62;;
71183;SDS011;58887;51.980;4.464;2023-10-08T11:22:18;4.80;;;4.43;;
71183;SDS011;58887;51.980;4.464;2023-10-08T11:24:48;5.05;;;4.70;;
71183;SDS011;58887;51.980;4.464;2023-10-08T11:27:16;5.04;;;4.70;;
71183;SDS011;58887;51.980;4.464;2023-10-08T11:32:09;4.50;;;4.31;;
71183;SDS011;58887;51.980;4.464;2023-10-08T11:34:38;4.25;;;4.01;;
71183;SDS011;58887;51.980;4.464;2023-10-08T11:37:07;4.76;;;4.46;;
71183;SDS011;58887;51.980;4.464;2023-10-08T11:39:44;4.84;;;4.73;;
71183;SDS011;58887;51.980;4.464;2023-10-08T11:42:13;5.25;;;5.16;;
71183;SDS011;58887;51.980;4.464;2023-10-08T11:45:02;5.08;;;4.94;;
71183;SDS011;58887;51.980;4.464;2023-10-08T11:47:45;5.21;;;5.05;;
71183;SDS011;58887;51.980;4.464;2023-10-08T11:50:18;5.09;;;4.90;;
71183;SDS011;58887;51.980;4.464;2023-10-08T11:52:46;5.48;;;5.28;;
71183;SDS011;58887;51.980;4.464;2023-10-08T11:55:12;4.78;;;4.66;;
71183;SDS011;58887;51.980;4.464;2023-10-08T11:57:47;4.86;;;4.74;;
71183;SDS011;58887;51.980;4.464;2023-10-08T12:00:15;4.71;;;4.52;;
71183;SDS011;58887;51.980;4.464;2023-10-08T12:02:45;4.90;;;4.68;;
71183;SDS011;58887;51.980;4.464;2023-10-08T12:05:14;4.77;;;4.62;;
71183;SDS011;58887;51.980;4.464;2023-10-08T12:07:51;5.24;;;5.06;;
71183;SDS011;58887;51.980;4.464;2023-10-08T12:10:18;4.81;;;4.61;;
71183;SDS011;58887;51.980;4.464;2023-10-08T12:12:53;4.77;;;4.67;;
71183;SDS011;58887;51.980;4.464;2023-10-08T12:15:19;4.68;;;4.61;;
71183;SDS011;58887;51.980;4.464;2023-10-08T12:17:46;5.27;;;5.15;;
71183;SDS011;58887;51.980;4.464;2023-10-08T12:20:39;5.82;;;5.73;;
71183;SDS011;58887;51.980;4.464;2023-10-08T12:23:12;6.15;;;6.08;;
71183;SDS011;58887;51.980;4.464;2023-10-08T12:25:53;6.30;;;6.23;;
71183;SDS011;58887;51.980;4.464;2023-10-08T12:28:23;6.18;;;6.14;;
71183;SDS011;58887;51.980;4.464;2023-10-08T12:30:50;6.24;;;6.24;;
71183;SDS011;58887;51.980;4.464;2023-10-08T12:33:21;5.89;;;5.89;;
71183;SDS011;58887;51.980;4.464;2023-10-08T12:35:49;5.64;;;5.59;;
71183;SDS011;58887;51.980;4.464;2023-10-08T12:38:21;6.03;;;5.95;;
71183;SDS011;58887;51.980;4.464;2023-10-08T12:40:53;6.17;;;6.07;;
71183;SDS011;58887;51.980;4.464;2023-10-08T12:43:20;6.32;;;6.25;;
71183;SDS011;58887;51.980;4.464;2023-10-08T12:45:52;6.79;;;6.71;;
71183;SDS011;58887;51.980;4.464;2023-10-08T12:48:23;6.58;;;6.50;;
71183;SDS011;58887;51.980;4.464;2023-10-08T12:50:51;7.06;;;6.98;;
71183;SDS011;58887;51.980;4.464;2023-10-08T12:53:25;6.69;;;6.59;;
71183;SDS011;58887;51.980;4.464;2023-10-08T12:55:55;7.26;;;7.16;;
71183;SDS011;58887;51.980;4.464;2023-10-08T12:58:23;7.51;;;7.44;;
71183;SDS011;58887;51.980;4.464;2023-10-08T13:00:55;8.12;;;8.04;;
71183;SDS011;58887;51.980;4.464;2023-10-08T13:03:28;7.62;;;7.48;;
71183;SDS011;58887;51.980;4.464;2023-10-08T13:05:56;7.44;;;7.28;;
71183;SDS011;58887;51.980;4.464;2023-10-08T13:08:32;7.63;;;7.43;;
71183;SDS011;58887;51.980;4.464;2023-10-08T13:11:01;7.57;;;7.47;;
71183;SDS011;58887;51.980;4.464;2023-10-08T13:13:27;7.59;;;7.49;;
71183;SDS011;58887;51.980;4.464;2023-10-08T13:15:53;7.03;;;6.93;;
71183;SDS011;58887;51.980;4.464;2023-10-08T13:18:24;7.24;;;7.20;;
71183;SDS011;58887;51.980;4.464;2023-10-08T13:20:53;6.90;;;6.86;;
71183;SDS011;58887;51.980;4.464;2023-10-08T13:23:19;6.90;;;6.78;;
71183;SDS011;58887;51.980;4.464;2023-10-08T13:25:49;6.71;;;6.58;;
71183;SDS011;58887;51.980;4.464;2023-10-08T13:28:29;6.33;;;6.13;;
71183;SDS011;58887;51.980;4.464;2023-10-08T13:30:55;6.62;;;6.44;;
71183;SDS011;58887;51.980;4.464;2023-10-08T13:33:21;7.00;;;6.88;;
71183;SDS011;58887;51.980;4.464;2023-10-08T13:35:50;8.13;;;8.02;;
71183;SDS011;58887;51.980;4.464;2023-10-08T13:38:17;8.68;;;8.45;;
71183;SDS011;58887;51.980;4.464;2023-10-08T13:40:48;8.29;;;8.24;;
71183;SDS011;58887;51.980;4.464;2023-10-08T13:43:29;7.34;;;7.32;;
71183;SDS011;58887;51.980;4.464;2023-10-08T13:46:00;8.05;;;7.96;;
71183;SDS011;58887;51.980;4.464;2023-10-08T13:48:29;7.92;;;7.78;;
71183;SDS011;58887;51.980;4.464;2023-10-08T13:50:59;8.98;;;8.89;;
71183;SDS011;58887;51.980;4.464;2023-10-08T13:53:25;8.40;;;8.28;;
71183;SDS011;58887;51.980;4.464;2023-10-08T13:55:55;7.74;;;7.69;;
71183;SDS011;58887;51.980;4.464;2023-10-08T13:58:26;7.23;;;7.20;;
71183;SDS011;58887;51.980;4.464;2023-10-08T14:01:05;7.40;;;7.34;;
71183;SDS011;58887;51.980;4.464;2023-10-08T14:03:44;8.07;;;8.03;;
71183;SDS011;58887;51.980;4.464;2023-10-08T14:06:10;7.84;;;7.81;;
71183;SDS011;58887;51.980;4.464;2023-10-08T14:08:36;8.41;;;8.37;;
71183;SDS011;58887;51.980;4.464;2023-10-08T14:11:01;8.67;;;8.62;;
71183;SDS011;58887;51.980;4.464;2023-10-08T14:13:31;8.31;;;8.26;;
71183;SDS011;58887;51.980;4.464;2023-10-08T14:15:58;8.55;;;8.51;;
71183;SDS011;58887;51.980;4.464;2023-10-08T14:18:24;7.86;;;7.84;;
71183;SDS011;58887;51.980;4.464;2023-10-08T14:21:06;8.02;;;8.00;;
71183;SDS011;58887;51.980;4.464;2023-10-08T14:23:35;7.73;;;7.72;;
71183;SDS011;58887;51.980;4.464;2023-10-08T14:26:05;7.74;;;7.74;;
71183;SDS011;58887;51.980;4.464;2023-10-08T14:28:33;8.36;;;8.33;;
71183;SDS011;58887;51.980;4.464;2023-10-08T14:31:18;7.68;;;7.66;;
71183;SDS011;58887;51.980;4.464;2023-10-08T14:33:48;7.64;;;7.63;;
71183;SDS011;58887;51.980;4.464;2023-10-08T14:36:37;8.02;;;8.01;;
71183;SDS011;58887;51.980;4.464;2023-10-08T14:39:21;7.57;;;7.53;;
71183;SDS011;58887;51.980;4.464;2023-10-08T14:42:05;7.48;;;7.43;;
71183;SDS011;58887;51.980;4.464;2023-10-08T14:44:49;8.23;;;8.19;;
71183;SDS011;58887;51.980;4.464;2023-10-08T14:47:16;7.59;;;7.56;;
71183;SDS011;58887;51.980;4.464;2023-10-08T14:49:42;7.14;;;7.12;;
71183;SDS011;58887;51.980;4.464;2023-10-08T14:52:11;6.72;;;6.69;;
71183;SDS011;58887;51.980;4.464;2023-10-08T14:54:40;6.03;;;6.03;;
71183;SDS011;58887;51.980;4.464;2023-10-08T14:57:07;5.58;;;5.57;;
71183;SDS011;58887;51.980;4.464;2023-10-08T14:59:32;6.17;;;6.16;;
71183;SDS011;58887;51.980;4.464;2023-10-08T15:01:58;6.35;;;6.29;;
71183;SDS011;58887;51.980;4.464;2023-10-08T15:04:26;6.42;;;6.39;;
71183;SDS011;58887;51.980;4.464;2023-10-08T15:06:56;6.40;;;6.39;;
71183;SDS011;58887;51.980;4.464;2023-10-08T15:09:23;5.76;;;5.76;;
71183;SDS011;58887;51.980;4.464;2023-10-08T15:11:52;5.97;;;5.97;;
71183;SDS011;58887;51.980;4.464;2023-10-08T15:14:18;6.31;;;6.31;;
71183;SDS011;58887;51.980;4.464;2023-10-08T15:16:45;6.42;;;6.41;;
71183;SDS011;58887;51.980;4.464;2023-10-08T15:19:17;6.06;;;6.02;;
71183;SDS011;58887;51.980;4.464;2023-10-08T15:21:47;6.81;;;6.79;;
71183;SDS011;58887;51.980;4.464;2023-10-08T15:24:17;6.13;;;6.13;;
71183;SDS011;58887;51.980;4.464;2023-10-08T15:26:43;6.20;;;6.20;;
71183;SDS011;58887;51.980;4.464;2023-10-08T15:29:11;6.00;;;5.98;;
71183;SDS011;58887;51.980;4.464;2023-10-08T15:31:39;5.90;;;5.88;;
71183;SDS011;58887;51.980;4.464;2023-10-08T15:34:05;6.14;;;6.13;;
71183;SDS011;58887;51.980;4.464;2023-10-08T15:36:31;6.11;;;6.11;;